地図

経路データ

SID SEASON NUMBER BASIN SUBBASIN NAME ISO_TIME NATURE LAT LON WMO_WIND WMO_PRES WMO_AGENCY TRACK_TYPE DIST2LAND LANDFALL IFLAG USA_AGENCY USA_ATCF_ID USA_LAT USA_LON USA_RECORD USA_STATUS USA_WIND USA_PRES USA_SSHS USA_R34_NE USA_R34_SE USA_R34_SW USA_R34_NW USA_R50_NE USA_R50_SE USA_R50_SW USA_R50_NW USA_R64_NE USA_R64_SE USA_R64_SW USA_R64_NW USA_POCI USA_ROCI USA_RMW USA_EYE TOKYO_LAT TOKYO_LON TOKYO_GRADE TOKYO_WIND TOKYO_PRES TOKYO_R50_DIR TOKYO_R50_LONG TOKYO_R50_SHORT TOKYO_R30_DIR TOKYO_R30_LONG TOKYO_R30_SHORT TOKYO_LAND CMA_LAT CMA_LON CMA_CAT CMA_WIND CMA_PRES HKO_LAT HKO_LON HKO_CAT HKO_WIND HKO_PRES NEWDELHI_LAT NEWDELHI_LON NEWDELHI_GRADE NEWDELHI_WIND NEWDELHI_PRES NEWDELHI_CI NEWDELHI_DP NEWDELHI_POCI REUNION_LAT REUNION_LON REUNION_TYPE REUNION_WIND REUNION_PRES REUNION_TNUM REUNION_CI REUNION_RMW REUNION_R34_NE REUNION_R34_SE REUNION_R34_SW REUNION_R34_NW REUNION_R50_NE REUNION_R50_SE REUNION_R50_SW REUNION_R50_NW REUNION_R64_NE REUNION_R64_SE REUNION_R64_SW REUNION_R64_NW BOM_LAT BOM_LON BOM_TYPE BOM_WIND BOM_PRES BOM_TNUM BOM_CI BOM_RMW BOM_R34_NE BOM_R34_SE BOM_R34_SW BOM_R34_NW BOM_R50_NE BOM_R50_SE BOM_R50_SW BOM_R50_NW BOM_R64_NE BOM_R64_SE BOM_R64_SW BOM_R64_NW BOM_ROCI BOM_POCI BOM_EYE BOM_POS_METHOD BOM_PRES_METHOD NADI_LAT NADI_LON NADI_CAT NADI_WIND NADI_PRES WELLINGTON_LAT WELLINGTON_LON WELLINGTON_WIND WELLINGTON_PRES DS824_LAT DS824_LON DS824_STAGE DS824_WIND DS824_PRES TD9636_LAT TD9636_LON TD9636_STAGE TD9636_WIND TD9636_PRES TD9635_LAT TD9635_LON TD9635_WIND TD9635_PRES TD9635_ROCI NEUMANN_LAT NEUMANN_LON NEUMANN_CLASS NEUMANN_WIND NEUMANN_PRES MLC_LAT MLC_LON MLC_CLASS MLC_WIND MLC_PRES USA_GUST BOM_GUST BOM_GUST_PER REUNION_GUST REUNION_GUST_PER USA_SEAHGT USA_SEARAD_NE USA_SEARAD_SE USA_SEARAD_SW USA_SEARAD_NW STORM_SPEED STORM_DIR
1938218N20150 1938 34 WP MM NOT_NAMED 1938-08-05 22:00:00 NR 20.0000 149.900 main 1931 1881 __________O___ -1 20.0000 149.900 7 15 306
1938218N20150 1938 34 WP MM NOT_NAMED 1938-08-06 00:00:00 NR 20.2944 149.474 main 1881 1808 __________P___ -1 20.2944 149.474 7 15 306
1938218N20150 1938 34 WP MM NOT_NAMED 1938-08-06 03:00:00 NR 20.7309 148.831 main 1808 1730 __________P___ -1 20.7309 148.831 7 15 305
1938218N20150 1938 34 WP MM NOT_NAMED 1938-08-06 06:00:00 NR 21.1569 148.181 main 1730 1659 __________P___ -1 21.1569 148.181 7 15 304
1938218N20150 1938 34 WP MM NOT_NAMED 1938-08-06 09:00:00 NR 21.5674 147.522 main 1659 1640 __________P___ -1 21.5674 147.522 7 15 304
1938218N20150 1938 34 WP MM NOT_NAMED 1938-08-06 10:00:00 NR 21.7000 147.300 main 1640 1592 __________O___ -1 21.7000 147.300 7 15 302
1938218N20150 1938 34 WP MM NOT_NAMED 1938-08-06 12:00:00 NR 21.9579 146.852 main 1592 1533 __________P___ -1 21.9579 146.852 7 15 301
1938218N20150 1938 34 WP MM NOT_NAMED 1938-08-06 15:00:00 NR 22.3263 146.175 main 1533 1466 __________P___ -1 22.3263 146.175 7 14 300
1938218N20150 1938 34 WP MM NOT_NAMED 1938-08-06 18:00:00 NR 22.6726 145.497 main 1466 1410 __________P___ -1 22.6726 145.497 7 14 298
1938218N20150 1938 34 WP MM NOT_NAMED 1938-08-06 21:00:00 NR 22.9968 144.823 main 1410 1393 __________P___ -1 22.9968 144.823 7 14 297
1938218N20150 1938 34 WP MM NOT_NAMED 1938-08-06 22:00:00 NR 23.1000 144.600 main 1393 1359 __________O___ -1 23.1000 144.600 3 14 297
1938218N20150 1938 34 WP MM NOT_NAMED 1938-08-07 00:00:00 NR 23.2996 144.165 main 1359 1308 __________P___ -1 23.2996 144.165 3 13 296
1938218N20150 1938 34 WP MM NOT_NAMED 1938-08-07 03:00:00 NR 23.5806 143.520 main 1308 1268 __________P___ -1 23.5806 143.520 3 13 295
1938218N20150 1938 34 WP MM NOT_NAMED 1938-08-07 06:00:00 NR 23.8481 142.875 main 1268 1210 __________P___ -1 23.8481 142.875 3 13 294
1938218N20150 1938 34 WP MM NOT_NAMED 1938-08-07 09:00:00 NR 24.1115 142.222 main 1210 1190 __________P___ -1 24.1115 142.222 3 13 294
1938218N20150 1938 34 WP MM NOT_NAMED 1938-08-07 10:00:00 NR 24.2000 142.000 main 1190 1151 __________O___ -1 24.2000 142.000 4 13 293
1938218N20150 1938 34 WP MM NOT_NAMED 1938-08-07 12:00:00 NR 24.3716 141.564 main 1151 1099 __________P___ -1 24.3716 141.564 4 13 293
1938218N20150 1938 34 WP MM NOT_NAMED 1938-08-07 15:00:00 NR 24.6294 140.899 main 1099 1039 __________P___ -1 24.6294 140.899 4 13 293
1938218N20150 1938 34 WP MM NOT_NAMED 1938-08-07 18:00:00 NR 24.8992 140.204 main 1039 982 __________P___ -1 24.8992 140.204 4 14 293
1938218N20150 1938 34 WP MM NOT_NAMED 1938-08-07 21:00:00 NR 25.1940 139.461 main 982 961 __________P___ -1 25.1940 139.461 4 15 294
1938218N20150 1938 34 WP MM NOT_NAMED 1938-08-07 22:00:00 NR 25.3000 139.200 main 961 925 __________O___ -1 25.3000 139.200 4 16 295
1938218N20150 1938 34 WP MM NOT_NAMED 1938-08-08 00:00:00 NR 25.5267 138.656 main 925 858 __________P___ -1 25.5267 138.656 4 17 295
1938218N20150 1938 34 WP MM NOT_NAMED 1938-08-08 03:00:00 NR 25.8920 137.789 main 858 780 __________P___ -1 25.8920 137.789 4 18 295
1938218N20150 1938 34 WP MM NOT_NAMED 1938-08-08 06:00:00 NR 26.2770 136.874 main 780 682 __________P___ -1 26.2770 136.874 4 18 295
1938218N20150 1938 34 WP MM NOT_NAMED 1938-08-08 09:00:00 NR 26.6695 135.923 main 682 661 __________P___ -1 26.6695 135.923 4 19 295
1938218N20150 1938 34 WP MM NOT_NAMED 1938-08-08 10:00:00 NR 26.8000 135.600 main 655 587 __________O___ -1 26.8000 135.600 4 19 294
1938218N20150 1938 34 WP MM NOT_NAMED 1938-08-08 12:00:00 NR 27.0586 134.949 main 587 512 __________P___ -1 27.0586 134.949 4 19 294
1938218N20150 1938 34 WP MM NOT_NAMED 1938-08-08 15:00:00 NR 27.4400 133.958 main 512 420 __________P___ -1 27.4400 133.958 4 19 293
1938218N20150 1938 34 WP MM NOT_NAMED 1938-08-08 18:00:00 NR 27.8137 132.955 main 420 333 __________P___ -1 27.8137 132.955 4 19 293
1938218N20150 1938 34 WP MM NOT_NAMED 1938-08-08 21:00:00 NR 28.1797 131.940 main 333 316 __________P___ -1 28.1797 131.940 4 19 292
1938218N20150 1938 34 WP MM NOT_NAMED 1938-08-08 22:00:00 NR 28.3000 131.600 main 313 __________O___ -1 28.3000 131.600 4 19 292

デジタル台風データ・検索

IBTrACS Databaseについて

本データベースは、米国NOAAが公開する1842年以降の世界の熱帯低気圧のベストトラックデータアーカイブInternational Best Track Archive for Climate Stewardship (IBTrACS)を、ウェブで閲覧しやすい形式に変換したものです。

最終更新日:2021-12-06